createdAt,value
2018-05-03T00:00:21.264Z,13.30
2018-05-03T00:02:48.782Z,13.30
2018-05-03T00:05:16.292Z,13.30
2018-05-03T00:07:43.836Z,13.20
2018-05-03T00:10:11.378Z,13.20
2018-05-03T00:12:39.847Z,13.10
2018-05-03T00:15:07.768Z,13.10
2018-05-03T00:17:35.327Z,13.10
2018-05-03T00:20:02.863Z,13.10
2018-05-03T00:22:30.399Z,13.10
2018-05-03T00:24:58.720Z,13.10
2018-05-03T00:27:26.228Z,13.10
2018-05-03T00:29:54.544Z,13.10
2018-05-03T00:32:22.084Z,13.00
2018-05-03T00:34:50.382Z,13.00
2018-05-03T00:37:17.901Z,13.00
2018-05-03T00:42:18.470Z,12.90
2018-05-03T00:44:46.010Z,13.00
2018-05-03T00:47:14.315Z,12.80
2018-05-03T00:49:41.831Z,12.80
2018-05-03T00:52:09.439Z,12.80
2018-05-03T00:54:47.893Z,12.80
2018-05-03T00:57:15.448Z,12.80
2018-05-03T00:59:42.975Z,12.80
2018-05-03T01:02:10.484Z,12.70
2018-05-03T01:04:38.056Z,12.70
2018-05-03T01:07:06.341Z,12.70
2018-05-03T01:09:33.922Z,12.60
2018-05-03T01:12:01.460Z,12.60
2018-05-03T01:14:29.007Z,12.50
2018-05-03T01:16:57.319Z,12.50
2018-05-03T01:19:26.369Z,12.50
2018-05-03T01:21:53.882Z,12.50
2018-05-03T01:24:21.425Z,12.40
2018-05-03T01:26:48.934Z,12.50
2018-05-03T01:29:16.471Z,12.50
2018-05-03T01:31:44.052Z,12.50
2018-05-03T01:34:11.576Z,12.50
2018-05-03T01:36:39.159Z,12.50
2018-05-03T01:39:06.760Z,12.40
2018-05-03T01:41:35.107Z,12.30
2018-05-03T01:44:02.639Z,12.30
2018-05-03T01:46:30.179Z,12.30
2018-05-03T01:48:57.712Z,12.30
2018-05-03T01:51:26.027Z,12.20
2018-05-03T01:53:53.547Z,12.20
2018-05-03T01:56:23.209Z,12.30
2018-05-03T01:58:50.823Z,12.20
2018-05-03T02:01:18.449Z,12.20
2018-05-03T02:03:45.970Z,12.10
2018-05-03T02:06:13.499Z,12.20
2018-05-03T02:08:41.037Z,12.20
2018-05-03T02:11:09.294Z,12.20
2018-05-03T02:13:36.855Z,12.10
2018-05-03T02:16:04.376Z,12.10
2018-05-03T02:18:31.929Z,12.10
2018-05-03T02:20:59.464Z,12.10
2018-05-03T02:23:27.745Z,12.00
2018-05-03T02:25:55.297Z,12.00
2018-05-03T02:28:23.590Z,12.00
2018-05-03T02:30:51.140Z,11.90
2018-05-03T02:33:18.672Z,12.00
2018-05-03T02:35:46.983Z,12.00
2018-05-03T02:38:14.519Z,12.00
2018-05-03T02:40:42.827Z,12.10
2018-05-03T02:43:10.366Z,12.00
2018-05-03T02:45:37.892Z,12.10
2018-05-03T02:48:05.436Z,12.10
2018-05-03T02:50:32.985Z,12.20
2018-05-03T02:53:00.523Z,12.10
2018-05-03T02:55:28.158Z,12.20
2018-05-03T02:58:13.450Z,12.10
2018-05-03T03:00:58.390Z,12.10
2018-05-03T03:03:43.494Z,12.10
2018-05-03T03:06:42.798Z,12.00
2018-05-03T03:09:27.858Z,12.00
2018-05-03T03:15:35.581Z,11.90
2018-05-03T03:18:14.928Z,11.90
2018-05-03T03:20:59.906Z,11.80
2018-05-03T03:23:44.778Z,11.80
2018-05-03T03:29:59.992Z,11.70
2018-05-03T03:32:39.240Z,11.60
2018-05-03T03:38:36.817Z,11.50
2018-05-03T03:41:16.973Z,11.40
2018-05-03T03:43:56.972Z,11.40
2018-05-03T03:46:24.532Z,11.40
2018-05-03T03:48:52.062Z,11.40
2018-05-03T03:51:20.346Z,11.50
2018-05-03T03:53:47.913Z,11.50
2018-05-03T03:56:15.467Z,11.50
2018-05-03T03:58:43.033Z,11.60
2018-05-03T04:01:10.555Z,11.60
2018-05-03T04:03:38.175Z,11.60
2018-05-03T04:06:06.520Z,11.60
2018-05-03T04:08:34.042Z,11.60
2018-05-03T04:11:01.562Z,11.60
2018-05-03T04:13:29.080Z,11.60
2018-05-03T04:15:56.650Z,11.70
2018-05-03T04:18:36.704Z,11.80
2018-05-03T04:21:16.133Z,11.80
2018-05-03T04:24:11.090Z,12.00
2018-05-03T04:26:38.663Z,12.00
2018-05-03T04:29:06.173Z,12.10
2018-05-03T04:31:34.793Z,12.30
2018-05-03T04:34:02.438Z,12.30
2018-05-03T04:36:29.898Z,12.30
2018-05-03T04:38:57.444Z,12.40
2018-05-03T04:41:24.970Z,12.30
2018-05-03T04:43:53.279Z,12.40
2018-05-03T04:46:20.855Z,12.40
2018-05-03T04:48:48.401Z,12.40
2018-05-03T04:51:16.996Z,12.50
2018-05-03T04:53:44.527Z,12.50
2018-05-03T04:56:12.081Z,12.50
2018-05-03T04:58:39.616Z,12.50
2018-05-03T05:01:07.916Z,13.00
2018-05-03T05:03:35.425Z,12.90
2018-05-03T05:06:03.050Z,13.00
2018-05-03T05:08:30.584Z,13.10
2018-05-03T05:10:58.131Z,13.10
2018-05-03T05:13:26.418Z,13.40
2018-05-03T05:15:54.101Z,13.40
2018-05-03T05:18:21.609Z,13.60
2018-05-03T05:20:50.056Z,13.70
2018-05-03T05:23:17.619Z,13.50
2018-05-03T05:25:45.135Z,13.60
2018-05-03T05:28:12.667Z,13.70
2018-05-03T05:30:40.279Z,13.80
2018-05-03T05:33:07.744Z,14.30
2018-05-03T05:35:35.264Z,14.60
2018-05-03T05:38:03.742Z,14.70
2018-05-03T05:40:31.286Z,14.70
2018-05-03T05:42:58.824Z,14.70
2018-05-03T05:45:26.473Z,14.90
2018-05-03T05:47:54.107Z,14.90
2018-05-03T05:50:21.731Z,15.30
2018-05-03T05:52:49.293Z,15.80
2018-05-03T05:55:17.597Z,16.40
2018-05-03T05:57:45.129Z,16.40
2018-05-03T06:00:12.769Z,17.00
2018-05-03T06:02:40.390Z,17.20
2018-05-03T06:05:07.961Z,17.80
2018-05-03T06:07:35.538Z,18.10
2018-05-03T06:10:03.101Z,18.10
2018-05-03T06:12:30.649Z,18.30
2018-05-03T06:14:58.308Z,18.20
2018-05-03T06:17:25.847Z,18.10
2018-05-03T06:19:54.199Z,18.60
2018-05-03T06:22:21.749Z,18.70
2018-05-03T06:24:50.075Z,18.70
2018-05-03T06:27:17.670Z,18.70
2018-05-03T06:29:45.201Z,18.80
2018-05-03T06:32:13.507Z,19.10
2018-05-03T06:34:41.033Z,19.70
2018-05-03T06:37:08.590Z,19.90
2018-05-03T06:39:36.127Z,19.70
2018-05-03T06:42:03.749Z,19.60
2018-05-03T06:44:32.055Z,19.50
2018-05-03T06:47:00.785Z,19.50
2018-05-03T06:49:28.371Z,19.10
2018-05-03T06:51:56.663Z,19.10
2018-05-03T06:54:24.982Z,18.50
2018-05-03T06:56:52.504Z,18.50
2018-05-03T06:59:20.108Z,18.20
2018-05-03T07:01:47.890Z,18.20
2018-05-03T07:04:15.624Z,17.90
2018-05-03T07:06:43.651Z,17.70
2018-05-03T07:09:12.018Z,17.20
2018-05-03T07:11:40.322Z,17.60
2018-05-03T07:14:07.881Z,17.50
2018-05-03T07:16:35.529Z,18.00
2018-05-03T07:19:03.108Z,17.70
2018-05-03T07:21:30.641Z,17.80
2018-05-03T07:23:58.921Z,17.70
2018-05-03T07:26:27.260Z,17.50
2018-05-03T07:28:54.789Z,17.50
2018-05-03T07:31:22.340Z,17.40
2018-05-03T07:33:49.892Z,17.40
2018-05-03T07:36:18.720Z,17.40
2018-05-03T07:38:49.421Z,17.50
2018-05-03T07:41:16.980Z,17.30
2018-05-03T07:43:45.336Z,17.40
2018-05-03T07:46:14.169Z,17.60
2018-05-03T07:48:42.997Z,17.70
2018-05-03T07:51:11.313Z,18.30
2018-05-03T07:53:38.875Z,18.30
2018-05-03T07:56:06.730Z,18.20
2018-05-03T07:58:34.255Z,18.60
2018-05-03T08:01:01.811Z,18.80
2018-05-03T08:03:30.133Z,19.10
2018-05-03T08:05:57.696Z,19.00
2018-05-03T08:08:25.749Z,18.70
2018-05-03T08:10:53.287Z,18.70
2018-05-03T08:13:21.612Z,19.40
2018-05-03T08:15:49.195Z,19.30
2018-05-03T08:18:16.740Z,19.90
2018-05-03T08:20:44.288Z,20.40
2018-05-03T08:23:11.861Z,20.70
2018-05-03T08:25:40.675Z,20.70
2018-05-03T08:28:08.251Z,21.30
2018-05-03T08:30:36.577Z,21.50
2018-05-03T08:33:04.117Z,21.50
2018-05-03T08:35:31.757Z,21.40
2018-05-03T08:37:59.275Z,21.90
2018-05-03T08:40:26.960Z,22.40
2018-05-03T08:42:54.533Z,22.70
2018-05-03T08:45:22.096Z,22.60
2018-05-03T08:47:51.198Z,21.90
2018-05-03T08:50:18.799Z,21.90
2018-05-03T08:52:46.297Z,22.60
2018-05-03T08:55:14.376Z,22.40
2018-05-03T08:57:41.887Z,23.20
2018-05-03T09:00:09.402Z,23.80
2018-05-03T09:02:36.941Z,24.00
2018-05-03T09:05:05.266Z,24.90
2018-05-03T09:07:32.957Z,24.90
2018-05-03T09:10:01.461Z,26.20
2018-05-03T09:12:29.069Z,26.10
2018-05-03T09:14:56.640Z,25.40
2018-05-03T09:17:24.185Z,25.60
2018-05-03T09:19:51.711Z,25.80
2018-05-03T09:22:19.254Z,26.40
2018-05-03T09:24:46.812Z,26.90
2018-05-03T09:27:14.522Z,26.80
2018-05-03T09:29:43.502Z,26.80
2018-05-03T09:32:11.021Z,27.00
2018-05-03T09:34:38.574Z,27.70
2018-05-03T09:37:06.151Z,27.60
2018-05-03T09:39:34.501Z,28.10
2018-05-03T09:42:03.336Z,28.00
2018-05-03T09:44:30.954Z,27.10
2018-05-03T09:46:58.539Z,26.80
2018-05-03T09:49:26.073Z,26.20
2018-05-03T09:51:53.739Z,25.30
2018-05-03T09:54:21.348Z,26.20
2018-05-03T09:56:48.880Z,26.20
2018-05-03T09:59:17.273Z,26.60
2018-05-03T10:01:44.740Z,26.60
2018-05-03T10:04:12.282Z,26.90
2018-05-03T10:06:39.839Z,27.10
2018-05-03T10:09:08.224Z,26.10
2018-05-03T10:11:35.861Z,26.10
2018-05-03T10:14:03.384Z,25.00
2018-05-03T10:16:31.017Z,25.30
2018-05-03T10:18:58.538Z,26.00
2018-05-03T10:21:26.869Z,26.00
2018-05-03T10:23:54.412Z,26.00
2018-05-03T10:26:22.030Z,25.70
2018-05-03T10:28:49.572Z,25.90
2018-05-03T10:31:17.168Z,25.80
2018-05-03T10:33:44.796Z,25.40
2018-05-03T10:36:12.546Z,25.10
2018-05-03T10:38:39.975Z,25.30
2018-05-03T10:41:07.557Z,24.80
2018-05-03T10:43:35.136Z,24.80
2018-05-03T10:46:02.701Z,24.60
2018-05-03T10:48:30.263Z,24.80
2018-05-03T10:50:57.788Z,24.40
2018-05-03T10:53:25.338Z,24.30
2018-05-03T10:55:54.411Z,23.80
2018-05-03T10:58:21.973Z,23.60
2018-05-03T11:00:49.505Z,23.50
2018-05-03T11:03:17.084Z,23.10
2018-05-03T11:05:44.632Z,23.00
2018-05-03T11:08:12.924Z,22.60
2018-05-03T11:10:40.492Z,22.60
2018-05-03T11:13:08.082Z,22.40
2018-05-03T11:15:35.625Z,22.10
2018-05-03T11:18:03.160Z,21.90
2018-05-03T11:20:31.236Z,22.20
2018-05-03T11:22:58.740Z,22.50
2018-05-03T11:25:27.069Z,22.50
2018-05-03T11:27:54.700Z,22.40
2018-05-03T11:30:22.246Z,22.50
2018-05-03T11:32:50.332Z,22.20
2018-05-03T11:35:18.670Z,22.00
2018-05-03T11:37:46.260Z,22.00
2018-05-03T11:40:13.802Z,21.90
2018-05-03T11:42:41.348Z,22.00
2018-05-03T11:45:09.817Z,21.80
2018-05-03T11:47:37.358Z,21.70
2018-05-03T11:50:04.908Z,21.70
2018-05-03T11:52:32.452Z,21.40
2018-05-03T11:55:00.776Z,21.00
2018-05-03T11:57:28.325Z,21.00
2018-05-03T11:59:55.909Z,20.90
2018-05-03T12:02:23.475Z,21.00
2018-05-03T12:04:51.031Z,20.90
2018-05-03T12:07:18.766Z,20.90
2018-05-03T12:09:46.294Z,20.70
2018-05-03T12:12:13.820Z,20.40
2018-05-03T12:14:41.397Z,20.10
2018-05-03T12:17:11.329Z,20.10
2018-05-03T12:19:39.236Z,20.10
2018-05-03T12:22:06.947Z,20.30
2018-05-03T12:24:35.031Z,20.20
2018-05-03T12:27:02.686Z,20.20
2018-05-03T12:29:30.991Z,20.10
2018-05-03T12:31:58.797Z,20.10
2018-05-03T12:34:26.331Z,20.10
2018-05-03T12:36:53.911Z,20.10
2018-05-03T12:39:21.438Z,19.90
2018-05-03T12:41:49.538Z,19.80
2018-05-03T12:44:17.888Z,19.60
2018-05-03T12:46:45.987Z,19.70
2018-05-03T12:49:13.587Z,19.80
2018-05-03T12:51:41.200Z,19.60
2018-05-03T12:54:09.120Z,19.70
2018-05-03T12:56:36.820Z,19.50
2018-05-03T12:59:04.393Z,19.50
2018-05-03T13:01:31.976Z,19.60
2018-05-03T13:03:59.527Z,19.40
2018-05-03T13:06:27.163Z,19.60
2018-05-03T13:08:54.684Z,19.80
2018-05-03T13:11:22.251Z,19.60
2018-05-03T13:13:49.794Z,19.50
2018-05-03T13:16:17.384Z,19.50
2018-05-03T13:18:44.947Z,19.50
2018-05-03T13:21:12.494Z,19.40
2018-05-03T13:23:40.135Z,19.60
2018-05-03T13:26:07.704Z,19.90
2018-05-03T13:28:35.259Z,20.00
2018-05-03T13:31:02.795Z,19.80
2018-05-03T13:33:31.113Z,19.70
2018-05-03T13:35:58.679Z,19.60
2018-05-03T13:38:26.225Z,19.70
2018-05-03T13:40:53.765Z,19.70
2018-05-03T13:43:21.337Z,19.70
2018-05-03T13:45:48.869Z,19.90
2018-05-03T13:48:17.150Z,20.00
2018-05-03T13:50:45.474Z,19.80
2018-05-03T13:53:13.151Z,19.80
2018-05-03T13:55:40.778Z,19.90
2018-05-03T13:58:08.300Z,19.90
2018-05-03T14:00:35.838Z,20.00
2018-05-03T14:03:03.371Z,19.80
2018-05-03T14:05:30.934Z,20.00
2018-05-03T14:07:58.480Z,19.90
2018-05-03T14:10:26.807Z,20.00
2018-05-03T14:12:55.222Z,20.10
2018-05-03T14:15:22.762Z,20.00
2018-05-03T14:17:50.456Z,20.20
2018-05-03T14:20:18.119Z,20.40
2018-05-03T14:22:45.680Z,20.50
2018-05-03T14:25:13.241Z,20.70
2018-05-03T14:27:40.772Z,20.90
2018-05-03T14:30:08.325Z,21.00
2018-05-03T14:32:35.861Z,20.80
2018-05-03T14:35:04.171Z,21.00
2018-05-03T14:37:31.716Z,21.00
2018-05-03T14:39:59.244Z,20.70
2018-05-03T14:42:26.791Z,20.80
2018-05-03T14:44:54.350Z,20.70
2018-05-03T14:47:21.955Z,20.70
2018-05-03T14:49:49.573Z,20.60
2018-05-03T14:52:17.190Z,20.50
2018-05-03T14:54:44.789Z,20.20
2018-05-03T14:57:12.347Z,20.30
2018-05-03T14:59:39.918Z,20.40
2018-05-03T15:02:07.456Z,20.80
2018-05-03T15:04:35.023Z,20.80
2018-05-03T15:07:03.513Z,20.50
2018-05-03T15:09:31.137Z,20.30
2018-05-03T15:11:58.729Z,20.40
2018-05-03T15:14:26.300Z,20.40
2018-05-03T15:16:53.860Z,20.50
2018-05-03T15:19:21.448Z,20.40
2018-05-03T15:21:49.056Z,20.40
2018-05-03T15:24:16.770Z,20.30
2018-05-03T15:26:44.297Z,20.20
2018-05-03T15:29:11.887Z,20.30
2018-05-03T15:31:39.457Z,20.20
2018-05-03T15:34:07.031Z,20.20
2018-05-03T15:36:34.585Z,20.00
2018-05-03T15:39:02.151Z,19.80
2018-05-03T15:41:29.728Z,19.80
2018-05-03T15:43:57.292Z,19.70
2018-05-03T15:46:24.838Z,19.50
2018-05-03T15:48:52.434Z,19.60
2018-05-03T15:51:19.997Z,19.60
2018-05-03T15:53:47.605Z,19.60
2018-05-03T15:56:15.179Z,19.70
2018-05-03T15:58:42.695Z,19.80
2018-05-03T16:01:10.252Z,19.70
2018-05-03T16:03:38.598Z,19.40
2018-05-03T16:06:06.956Z,19.40
2018-05-03T16:08:34.658Z,19.40
2018-05-03T16:11:03.011Z,19.30
2018-05-03T16:13:30.531Z,19.30
2018-05-03T16:15:58.414Z,19.40
2018-05-03T16:18:26.002Z,19.30
2018-05-03T16:20:53.549Z,19.30
2018-05-03T16:23:21.130Z,19.20
2018-05-03T16:25:48.689Z,19.20
2018-05-03T16:28:16.247Z,19.20
2018-05-03T16:30:43.863Z,19.20
2018-05-03T16:33:11.427Z,19.10
2018-05-03T16:35:38.951Z,19.20
2018-05-03T16:38:07.198Z,19.00
2018-05-03T16:40:34.784Z,19.10
2018-05-03T16:43:02.380Z,19.20
2018-05-03T16:45:29.943Z,19.20
2018-05-03T16:47:57.547Z,19.00
2018-05-03T16:50:25.939Z,19.00
2018-05-03T16:52:53.718Z,19.00
2018-05-03T16:55:22.523Z,18.90
2018-05-03T16:57:50.158Z,18.90
2018-05-03T17:00:17.770Z,18.90
2018-05-03T17:02:45.386Z,18.90
2018-05-03T17:05:12.987Z,18.90
2018-05-03T17:07:40.964Z,19.00
2018-05-03T17:10:09.495Z,18.90
2018-05-03T17:12:37.135Z,18.80
2018-05-03T17:15:04.692Z,18.70
2018-05-03T17:17:32.326Z,18.70
2018-05-03T17:20:00.749Z,18.70
2018-05-03T17:22:28.505Z,18.50
2018-05-03T17:24:56.135Z,18.50
2018-05-03T17:27:23.693Z,18.40
2018-05-03T17:29:52.057Z,18.30
2018-05-03T17:32:19.616Z,18.30
2018-05-03T17:34:47.212Z,18.20
2018-05-03T17:37:15.569Z,18.10
2018-05-03T17:39:43.125Z,18.10
2018-05-03T17:42:10.702Z,18.00
2018-05-03T17:44:38.255Z,18.00
2018-05-03T17:47:05.916Z,17.90
2018-05-03T17:49:33.513Z,17.80
2018-05-03T17:52:01.136Z,17.80
2018-05-03T17:54:28.749Z,17.70
2018-05-03T17:56:56.477Z,17.60
2018-05-03T17:59:24.260Z,17.60
2018-05-03T18:01:51.864Z,17.50
2018-05-03T18:04:19.456Z,17.50
2018-05-03T18:06:47.061Z,17.40
2018-05-03T18:09:14.640Z,17.40
2018-05-03T18:11:42.169Z,17.30
2018-05-03T18:14:09.733Z,17.30
2018-05-03T18:16:37.287Z,17.20
2018-05-03T18:19:04.857Z,17.20
2018-05-03T18:21:32.492Z,17.10
2018-05-03T18:24:00.834Z,17.00
2018-05-03T18:26:28.460Z,17.00
2018-05-03T18:28:56.109Z,17.00
2018-05-03T18:31:23.691Z,17.00
2018-05-03T18:33:51.226Z,16.90
2018-05-03T18:36:18.776Z,16.90
2018-05-03T18:38:47.078Z,16.90
2018-05-03T18:41:14.627Z,16.90
2018-05-03T18:43:43.178Z,16.90
2018-05-03T18:46:11.624Z,16.80
2018-05-03T18:48:39.321Z,16.80
2018-05-03T18:51:06.883Z,16.70
2018-05-03T18:53:34.461Z,16.70
2018-05-03T18:56:02.031Z,16.70
2018-05-03T18:58:29.577Z,16.70
2018-05-03T19:00:57.180Z,16.70
2018-05-03T19:03:25.590Z,16.70
2018-05-03T19:05:53.921Z,16.70
2018-05-03T19:08:21.539Z,16.70
2018-05-03T19:10:49.039Z,16.70
2018-05-03T19:13:16.628Z,16.70
2018-05-03T19:15:44.330Z,16.70
2018-05-03T19:18:11.888Z,16.60
2018-05-03T19:20:39.527Z,16.50
2018-05-03T19:23:07.060Z,16.50
2018-05-03T19:25:34.646Z,16.50
2018-05-03T19:28:02.179Z,16.50
2018-05-03T19:30:29.933Z,16.50
2018-05-03T19:32:57.491Z,16.50
2018-05-03T19:35:25.069Z,16.50
2018-05-03T19:37:52.604Z,16.50
2018-05-03T19:40:20.152Z,16.40
2018-05-03T19:42:47.750Z,16.30
2018-05-03T19:45:16.059Z,16.30
2018-05-03T19:47:43.736Z,16.20
2018-05-03T19:50:11.205Z,16.20
2018-05-03T19:52:38.807Z,16.20
2018-05-03T19:55:06.360Z,16.20
2018-05-03T19:57:33.896Z,16.10
2018-05-03T20:00:01.507Z,16.10
2018-05-03T20:02:30.699Z,16.10
2018-05-03T20:04:58.259Z,16.10
2018-05-03T20:07:26.586Z,16.00
2018-05-03T20:09:54.144Z,16.00
2018-05-03T20:12:21.697Z,16.00
2018-05-03T20:14:49.244Z,16.00
2018-05-03T20:17:16.854Z,15.90
2018-05-03T20:19:45.177Z,15.90
2018-05-03T20:22:12.736Z,15.90
2018-05-03T20:24:40.287Z,15.90
2018-05-03T20:27:07.856Z,16.00
2018-05-03T20:29:35.391Z,16.00
2018-05-03T20:32:03.031Z,16.00
2018-05-03T20:34:31.618Z,15.90
2018-05-03T20:36:59.184Z,15.90
2018-05-03T20:39:27.583Z,15.80
2018-05-03T20:41:55.935Z,15.80
2018-05-03T20:44:24.263Z,15.70
2018-05-03T20:46:51.810Z,15.60
2018-05-03T20:49:20.249Z,15.60
2018-05-03T20:51:48.559Z,15.50
2018-05-03T20:54:16.090Z,15.50
2018-05-03T20:56:44.390Z,15.50
2018-05-03T20:59:11.944Z,15.50
2018-05-03T21:01:39.499Z,15.50
2018-05-03T21:04:08.169Z,15.40
2018-05-03T21:06:36.746Z,15.40
2018-05-03T21:09:05.834Z,15.30
2018-05-03T21:11:33.420Z,15.30
2018-05-03T21:14:00.990Z,15.30
2018-05-03T21:16:28.529Z,15.30
2018-05-03T21:18:56.855Z,15.20
2018-05-03T21:21:24.471Z,15.20
2018-05-03T21:23:52.769Z,15.20
2018-05-03T21:26:20.369Z,15.20
2018-05-03T21:28:47.895Z,15.20
2018-05-03T21:31:15.407Z,15.10
2018-05-03T21:33:43.721Z,15.00
2018-05-03T21:36:11.280Z,15.00
2018-05-03T21:38:38.941Z,14.90
2018-05-03T21:41:06.488Z,14.90
2018-05-03T21:43:34.073Z,14.80
2018-05-03T21:46:01.619Z,14.70
2018-05-03T21:48:29.173Z,14.60
2018-05-03T21:50:56.755Z,14.50
2018-05-03T21:53:24.276Z,14.50
2018-05-03T21:55:51.821Z,14.40
2018-05-03T21:58:20.136Z,14.30
2018-05-03T22:00:47.747Z,14.30
2018-05-03T22:03:15.864Z,14.30
2018-05-03T22:05:43.392Z,14.20
2018-05-03T22:08:11.731Z,14.20
2018-05-03T22:10:39.295Z,14.20
2018-05-03T22:13:06.917Z,14.20
2018-05-03T22:15:34.435Z,14.10
2018-05-03T22:18:01.972Z,14.20
2018-05-03T22:20:30.862Z,14.10
2018-05-03T22:22:58.391Z,14.20
2018-05-03T22:25:26.649Z,14.10
2018-05-03T22:27:54.216Z,14.20
2018-05-03T22:30:23.533Z,14.20
2018-05-03T22:32:51.351Z,14.30
2018-05-03T22:35:19.675Z,14.30
2018-05-03T22:37:47.246Z,14.30
2018-05-03T22:40:14.803Z,14.40
2018-05-03T22:42:42.432Z,14.40
2018-05-03T22:45:09.990Z,14.40
2018-05-03T22:47:37.553Z,14.40
2018-05-03T22:50:05.081Z,14.40
2018-05-03T22:52:34.800Z,14.40
2018-05-03T22:55:03.296Z,14.30
2018-05-03T22:57:30.851Z,14.30
2018-05-03T22:59:58.365Z,14.30
2018-05-03T23:02:25.893Z,14.30
2018-05-03T23:04:53.429Z,14.30
2018-05-03T23:07:20.961Z,14.40
2018-05-03T23:09:48.545Z,14.30
2018-05-03T23:12:16.095Z,14.30
2018-05-03T23:14:44.413Z,14.30
2018-05-03T23:17:11.958Z,14.30
2018-05-03T23:19:39.528Z,14.30
2018-05-03T23:22:08.705Z,14.30
2018-05-03T23:24:36.362Z,14.30
2018-05-03T23:27:03.888Z,14.30
2018-05-03T23:29:32.197Z,14.20
2018-05-03T23:32:01.131Z,14.20
2018-05-03T23:34:30.248Z,14.20
2018-05-03T23:36:57.842Z,14.10
2018-05-03T23:39:25.432Z,14.10
2018-05-03T23:41:53.080Z,14.00
2018-05-03T23:44:21.445Z,13.90
2018-05-03T23:46:49.043Z,13.90
2018-05-03T23:49:16.634Z,13.80
2018-05-03T23:51:44.233Z,13.80
2018-05-03T23:54:11.825Z,13.80
2018-05-03T23:56:39.405Z,13.70
2018-05-03T23:59:07.004Z,13.70
